createdAt,value
2022-12-01T00:01:21.731Z,47.70
2022-12-01T00:03:49.015Z,45.80
2022-12-01T00:06:20.894Z,43.77
2022-12-01T00:09:08.112Z,39.63
2022-12-01T00:11:37.171Z,44.23
2022-12-01T00:14:05.430Z,44.80
2022-12-01T00:16:33.065Z,44.67
2022-12-01T00:19:00.465Z,42.13
2022-12-01T00:21:28.176Z,44.87
2022-12-01T00:23:57.142Z,46.37
2022-12-01T00:26:26.141Z,41.50
2022-12-01T00:28:58.031Z,45.87
2022-12-01T00:31:26.413Z,44.80
2022-12-01T00:33:53.871Z,42.53
2022-12-01T00:36:21.165Z,51.57
2022-12-01T00:38:51.295Z,49.97
2022-12-01T00:41:18.372Z,47.57
2022-12-01T00:43:45.410Z,44.87
2022-12-01T00:46:12.657Z,44.80
2022-12-01T00:48:40.151Z,46.60
2022-12-01T00:51:07.480Z,43.83
2022-12-01T00:53:34.623Z,46.67
2022-12-01T00:56:01.609Z,45.70
2022-12-01T00:58:28.962Z,46.37
2022-12-01T01:01:01.448Z,46.07
2022-12-01T01:03:29.659Z,49.60
2022-12-01T01:05:57.017Z,44.63
2022-12-01T01:08:24.043Z,50.17
2022-12-01T01:10:51.114Z,53.10
2022-12-01T01:13:18.329Z,46.67
2022-12-01T01:15:45.343Z,55.03
2022-12-01T01:18:12.713Z,48.43
2022-12-01T01:20:39.835Z,47.30
2022-12-01T01:23:07.092Z,56.70
2022-12-01T01:25:34.279Z,51.50
2022-12-01T01:28:01.361Z,59.63
2022-12-01T01:30:28.494Z,55.50
2022-12-01T01:32:55.567Z,60.13
2022-12-01T01:35:22.689Z,52.83
2022-12-01T01:37:51.011Z,50.07
2022-12-01T01:40:18.611Z,56.60
2022-12-01T01:42:45.820Z,53.33
2022-12-01T01:45:25.461Z,58.47
2022-12-01T01:47:53.970Z,59.07
2022-12-01T01:50:26.629Z,57.20
2022-12-01T01:53:02.732Z,56.37
2022-12-01T01:55:32.007Z,54.60
2022-12-01T01:58:00.111Z,58.63
2022-12-01T02:00:27.226Z,49.93
2022-12-01T02:02:57.346Z,53.63
2022-12-01T02:05:33.054Z,59.07
2022-12-01T02:08:01.642Z,65.03
2022-12-01T02:10:34.233Z,56.47
2022-12-01T02:13:26.311Z,54.47
2022-12-01T02:16:06.555Z,59.33
2022-12-01T02:18:48.679Z,61.20
2022-12-01T02:21:36.130Z,57.30
2022-12-01T02:24:30.820Z,62.83
2022-12-01T02:27:18.762Z,58.23
2022-12-01T02:30:09.250Z,55.23
2022-12-01T02:33:02.615Z,63.93
2022-12-01T02:35:36.221Z,58.33
2022-12-01T02:38:24.301Z,56.47
2022-12-01T02:41:00.184Z,56.27
2022-12-01T02:43:42.175Z,56.93
2022-12-01T02:46:21.316Z,59.57
2022-12-01T02:48:51.879Z,56.97
2022-12-01T02:51:26.792Z,58.20
2022-12-01T02:53:55.602Z,58.67
2022-12-01T02:56:24.039Z,61.70
2022-12-01T02:58:51.142Z,62.87
2022-12-01T03:02:09.061Z,60.60
2022-12-01T03:04:40.892Z,61.63
2022-12-01T03:07:27.247Z,58.53
2022-12-01T03:10:20.611Z,58.93
2022-12-01T03:12:50.693Z,62.33
2022-12-01T03:15:35.994Z,71.50
2022-12-01T03:18:24.590Z,61.60
2022-12-01T03:21:02.210Z,60.93
2022-12-01T03:23:33.464Z,60.13
2022-12-01T03:26:03.894Z,56.87
2022-12-01T03:28:37.765Z,54.33
2022-12-01T03:31:09.015Z,57.67
2022-12-01T03:33:47.303Z,64.43
2022-12-01T03:36:22.924Z,62.83
2022-12-01T03:38:55.994Z,59.27
2022-12-01T03:41:29.906Z,49.97
2022-12-01T03:44:10.038Z,55.37
2022-12-01T03:47:01.997Z,60.47
2022-12-01T03:49:29.785Z,63.77
2022-12-01T03:52:28.505Z,61.43
2022-12-01T03:55:12.949Z,56.77
2022-12-01T03:57:49.724Z,55.67
2022-12-01T04:00:17.242Z,58.20
2022-12-01T04:02:48.988Z,62.57
2022-12-01T04:05:18.084Z,59.80
2022-12-01T04:07:48.402Z,64.77
2022-12-01T04:10:15.651Z,57.07
2022-12-01T04:12:42.730Z,52.63
2022-12-01T04:15:12.637Z,54.90
2022-12-01T04:17:43.326Z,52.93
2022-12-01T04:20:14.665Z,57.97
2022-12-01T04:22:41.695Z,58.90
2022-12-01T04:25:09.863Z,58.73
2022-12-01T04:27:37.890Z,56.33
2022-12-01T04:30:06.522Z,56.40
2022-12-01T04:32:38.867Z,58.20
2022-12-01T04:35:07.350Z,57.33
2022-12-01T04:37:34.883Z,56.37
2022-12-01T04:40:01.943Z,54.73
2022-12-01T04:42:28.990Z,63.70
2022-12-01T04:44:56.018Z,53.70
2022-12-01T04:47:23.058Z,55.77
2022-12-01T04:49:50.383Z,60.83
2022-12-01T04:52:17.617Z,56.47
2022-12-01T04:54:44.639Z,59.87
2022-12-01T04:57:11.625Z,57.37
2022-12-01T04:59:38.609Z,64.77
2022-12-01T05:02:05.684Z,60.30
2022-12-01T05:04:34.168Z,64.73
2022-12-01T05:07:01.191Z,57.97
2022-12-01T05:09:28.230Z,56.60
2022-12-01T05:11:55.274Z,56.53
2022-12-01T05:14:22.266Z,54.93
2022-12-01T05:16:49.291Z,61.87
2022-12-01T05:19:34.951Z,52.70
2022-12-01T05:22:02.029Z,55.03
2022-12-01T05:24:29.075Z,52.83
2022-12-01T05:26:56.109Z,58.07
2022-12-01T05:29:23.160Z,60.20
2022-12-01T05:31:50.294Z,57.87
2022-12-01T05:34:17.448Z,54.90
2022-12-01T05:36:44.520Z,59.27
2022-12-01T05:39:11.501Z,57.50
2022-12-01T05:41:38.500Z,61.47
2022-12-01T05:44:05.824Z,55.63
2022-12-01T05:46:32.979Z,56.07
2022-12-01T05:49:00.181Z,54.67
2022-12-01T05:51:27.227Z,59.13
2022-12-01T05:53:54.373Z,55.13
2022-12-01T05:56:21.888Z,54.50
2022-12-01T05:58:48.845Z,54.60
2022-12-01T06:01:16.032Z,58.83
2022-12-01T06:03:43.269Z,58.77
2022-12-01T06:06:10.402Z,59.73
2022-12-01T06:08:37.440Z,57.23
2022-12-01T06:11:04.532Z,58.80
2022-12-01T06:13:31.657Z,59.57
2022-12-01T06:16:00.266Z,66.40
2022-12-01T06:18:28.183Z,57.70
2022-12-01T06:20:55.268Z,57.93
2022-12-01T06:23:26.283Z,57.23
2022-12-01T06:25:55.999Z,61.47
2022-12-01T06:28:23.045Z,58.50
2022-12-01T06:30:50.145Z,59.33
2022-12-01T06:33:17.147Z,65.63
2022-12-01T06:35:44.255Z,60.60
2022-12-01T06:38:11.329Z,58.80
2022-12-01T06:40:38.467Z,67.80
2022-12-01T06:43:06.512Z,53.90
2022-12-01T06:45:33.591Z,66.83
2022-12-01T06:48:00.780Z,61.33
2022-12-01T06:50:27.822Z,63.10
2022-12-01T06:52:55.250Z,60.20
2022-12-01T06:55:22.437Z,58.27
2022-12-01T06:57:50.061Z,63.03
2022-12-01T07:00:17.621Z,61.30
2022-12-01T07:02:45.010Z,60.07
2022-12-01T07:05:12.086Z,58.73
2022-12-01T07:07:39.921Z,58.90
2022-12-01T07:10:08.329Z,57.90
2022-12-01T07:12:35.709Z,67.37
2022-12-01T07:15:03.263Z,61.53
2022-12-01T07:17:30.381Z,63.37
2022-12-01T07:19:57.813Z,62.50
2022-12-01T07:22:31.031Z,61.37
2022-12-01T07:24:59.564Z,63.47
2022-12-01T07:27:30.085Z,63.27
2022-12-01T07:29:57.101Z,63.57
2022-12-01T07:32:24.108Z,60.37
2022-12-01T07:34:51.295Z,60.73
2022-12-01T07:37:18.286Z,69.00
2022-12-01T07:39:45.303Z,68.07
2022-12-01T07:42:12.345Z,64.13
2022-12-01T07:44:39.373Z,61.77
2022-12-01T07:47:06.528Z,63.03
2022-12-01T07:49:34.413Z,66.97
2022-12-01T07:52:01.513Z,65.23
2022-12-01T07:54:28.533Z,61.77
2022-12-01T07:56:55.548Z,71.53
2022-12-01T07:59:22.566Z,65.43
2022-12-01T08:01:49.579Z,64.73
2022-12-01T08:04:16.691Z,66.77
2022-12-01T08:06:43.723Z,66.53
2022-12-01T08:09:10.736Z,56.83
2022-12-01T08:11:37.880Z,62.50
2022-12-01T08:14:05.015Z,67.73
2022-12-01T08:16:32.101Z,59.23
2022-12-01T08:18:59.193Z,60.23
2022-12-01T08:21:26.229Z,63.13
2022-12-01T08:23:55.439Z,61.63
2022-12-01T08:26:23.945Z,56.00
2022-12-01T08:28:51.058Z,55.03
2022-12-01T08:31:24.687Z,63.67
2022-12-01T08:33:52.412Z,61.63
2022-12-01T08:36:20.721Z,60.73
2022-12-01T08:38:52.005Z,60.23
2022-12-01T08:41:20.325Z,55.03
2022-12-01T08:43:57.946Z,57.97
2022-12-01T08:46:27.513Z,62.67
2022-12-01T08:48:57.396Z,61.13
2022-12-01T08:51:25.561Z,63.60
2022-12-01T08:53:52.831Z,59.63
2022-12-01T08:56:24.581Z,57.03
2022-12-01T08:58:51.844Z,56.13
2022-12-01T09:01:19.672Z,59.63
2022-12-01T09:03:47.211Z,51.77
2022-12-01T09:06:22.737Z,51.27
2022-12-01T09:08:49.925Z,55.80
2022-12-01T09:11:18.905Z,54.57
2022-12-01T09:13:54.316Z,53.13
2022-12-01T09:16:21.868Z,58.03
2022-12-01T09:18:49.007Z,53.97
2022-12-01T09:21:20.706Z,50.57
2022-12-01T09:23:48.252Z,55.50
2022-12-01T09:26:18.690Z,48.40
2022-12-01T09:28:47.470Z,51.40
2022-12-01T09:31:16.774Z,56.73
2022-12-01T09:33:44.314Z,48.63
2022-12-01T09:36:11.543Z,47.23
2022-12-01T09:38:39.108Z,50.00
2022-12-01T09:41:19.275Z,51.53
2022-12-01T09:44:00.770Z,48.93
2022-12-01T09:46:34.407Z,49.10
2022-12-01T09:49:03.984Z,47.93
2022-12-01T09:51:36.307Z,47.10
2022-12-01T09:54:04.335Z,45.37
2022-12-01T09:56:36.484Z,45.67
2022-12-01T09:59:10.035Z,43.03
2022-12-01T10:01:42.931Z,49.00
2022-12-01T10:04:25.877Z,48.50
2022-12-01T10:07:19.535Z,43.80
2022-12-01T10:09:59.734Z,46.73
2022-12-01T10:12:31.533Z,41.97
2022-12-01T10:15:39.656Z,46.10
2022-12-01T10:18:24.834Z,48.60
2022-12-01T10:21:08.906Z,45.20
2022-12-01T10:24:09.759Z,44.63
2022-12-01T10:26:55.352Z,43.50
2022-12-01T10:29:28.315Z,47.20
2022-12-01T10:31:58.468Z,41.10
2022-12-01T10:34:29.194Z,42.53
2022-12-01T10:36:57.392Z,39.60
2022-12-01T10:39:35.056Z,40.37
2022-12-01T10:42:12.973Z,40.80
2022-12-01T10:44:40.886Z,35.90
2022-12-01T10:47:22.516Z,42.07
2022-12-01T10:49:49.957Z,40.27
2022-12-01T10:52:30.414Z,37.87
2022-12-01T10:54:57.461Z,35.03
2022-12-01T10:57:26.317Z,37.70
2022-12-01T10:59:57.946Z,37.13
2022-12-01T11:02:28.477Z,40.33
2022-12-01T11:04:59.375Z,38.03
2022-12-01T11:07:30.953Z,38.93
2022-12-01T11:10:16.628Z,34.63
2022-12-01T11:12:46.920Z,34.93
2022-12-01T11:15:30.593Z,31.37
2022-12-01T11:18:03.502Z,35.23
2022-12-01T11:20:32.422Z,34.33
2022-12-01T11:23:22.346Z,35.83
2022-12-01T11:26:16.452Z,31.70
2022-12-01T11:28:55.103Z,34.53
2022-12-01T11:31:28.180Z,33.83
2022-12-01T11:33:56.934Z,38.17
2022-12-01T11:36:42.608Z,34.33
2022-12-01T11:39:21.573Z,34.30
2022-12-01T11:41:54.568Z,34.67
2022-12-01T11:44:43.534Z,36.03
2022-12-01T11:47:23.158Z,35.20
2022-12-01T11:49:59.614Z,36.97
2022-12-01T11:52:46.828Z,40.53
2022-12-01T11:55:13.833Z,39.73
2022-12-01T11:57:44.064Z,38.10
2022-12-01T12:00:21.194Z,33.50
2022-12-01T12:03:00.134Z,37.13
2022-12-01T12:05:49.930Z,37.03
2022-12-01T12:08:19.972Z,38.33
2022-12-01T12:11:14.994Z,36.23
2022-12-01T12:14:13.010Z,34.83
2022-12-01T12:17:12.757Z,32.90
2022-12-01T12:20:10.282Z,45.17
2022-12-01T12:22:56.158Z,31.67
2022-12-01T12:25:45.609Z,34.27
2022-12-01T12:28:34.525Z,30.97
2022-12-01T12:31:11.558Z,34.40
2022-12-01T12:33:58.947Z,34.27
2022-12-01T12:36:40.888Z,30.93
2022-12-01T12:39:29.946Z,33.53
2022-12-01T12:41:58.764Z,29.87
2022-12-01T12:44:48.430Z,31.77
2022-12-01T12:47:54.166Z,34.83
2022-12-01T12:50:42.733Z,31.33
2022-12-01T12:53:22.581Z,29.83
2022-12-01T12:55:58.270Z,27.67
2022-12-01T12:58:49.513Z,30.97
2022-12-01T13:01:21.776Z,29.77
2022-12-01T13:04:08.595Z,26.93
2022-12-01T13:06:57.459Z,25.93
2022-12-01T13:09:35.321Z,28.43
2022-12-01T13:12:25.766Z,26.80
2022-12-01T13:15:01.417Z,26.63
2022-12-01T13:17:35.539Z,27.20
2022-12-01T13:20:03.568Z,29.13
2022-12-01T13:22:36.316Z,29.23
2022-12-01T13:25:04.212Z,24.60
2022-12-01T13:27:38.531Z,26.30
2022-12-01T13:30:16.700Z,22.07
2022-12-01T13:32:43.773Z,20.80
2022-12-01T13:35:39.408Z,24.03
2022-12-01T13:38:34.263Z,23.60
2022-12-01T13:41:19.722Z,19.27
2022-12-01T13:44:08.991Z,17.33
2022-12-01T13:46:42.309Z,16.33
2022-12-01T13:49:36.867Z,13.77
2022-12-01T13:52:21.943Z,15.83
2022-12-01T13:55:08.405Z,16.23
2022-12-01T13:57:39.932Z,17.03
2022-12-01T14:00:24.221Z,19.70
2022-12-01T14:03:13.280Z,16.57
2022-12-01T14:05:40.331Z,14.70
2022-12-01T14:08:19.563Z,13.93
2022-12-01T14:10:58.141Z,15.50
2022-12-01T14:13:26.783Z,19.03
2022-12-01T14:16:02.277Z,21.70
2022-12-01T14:18:49.215Z,19.67
2022-12-01T14:21:17.663Z,19.40
2022-12-01T14:24:05.493Z,15.57
2022-12-01T14:26:44.827Z,16.97
2022-12-01T14:29:38.699Z,19.37
2022-12-01T14:32:21.582Z,18.73
2022-12-01T14:34:52.120Z,20.43
2022-12-01T14:37:21.840Z,21.30
2022-12-01T14:40:03.580Z,22.93
2022-12-01T14:42:54.878Z,22.07
2022-12-01T14:45:49.770Z,24.27
2022-12-01T14:48:24.340Z,23.67
2022-12-01T14:50:59.043Z,23.10
2022-12-01T14:53:35.933Z,23.07
2022-12-01T14:56:12.725Z,25.07
2022-12-01T14:58:50.301Z,25.40
2022-12-01T15:01:17.414Z,24.10
2022-12-01T15:03:48.957Z,26.07
2022-12-01T15:06:21.928Z,27.10
2022-12-01T15:09:32.317Z,32.57
2022-12-01T15:12:00.231Z,28.00
2022-12-01T15:14:32.073Z,27.27
2022-12-01T15:16:59.856Z,26.83
2022-12-01T15:19:31.691Z,25.17
2022-12-01T15:22:02.698Z,31.73
2022-12-01T15:24:31.071Z,32.53
2022-12-01T15:27:03.688Z,28.93
2022-12-01T15:29:45.668Z,29.97
2022-12-01T15:32:16.873Z,27.90
2022-12-01T15:34:46.907Z,28.10
2022-12-01T15:37:19.334Z,26.33
2022-12-01T15:40:59.865Z,26.83
2022-12-01T15:43:15.288Z,32.90
2022-12-01T15:45:48.378Z,28.40
2022-12-01T15:48:18.140Z,27.33
2022-12-01T15:50:58.828Z,27.27
2022-12-01T15:53:29.483Z,30.27
2022-12-01T15:55:59.249Z,26.23
2022-12-01T15:58:34.860Z,25.93
2022-12-01T16:01:13.073Z,26.27
2022-12-01T16:04:03.381Z,30.50
2022-12-01T16:06:34.753Z,29.07
2022-12-01T16:09:19.207Z,27.77
2022-12-01T16:12:17.703Z,28.57
2022-12-01T16:15:14.395Z,28.50
2022-12-01T16:17:52.980Z,27.57
2022-12-01T16:20:42.551Z,26.20
2022-12-01T16:23:15.016Z,28.57
2022-12-01T16:25:45.373Z,28.67
2022-12-01T16:28:37.761Z,30.70
2022-12-01T16:31:06.045Z,30.90
2022-12-01T16:33:38.226Z,34.27
2022-12-01T16:36:05.682Z,33.37
2022-12-01T16:38:32.705Z,29.83
2022-12-01T16:41:01.964Z,33.93
2022-12-01T16:43:29.930Z,28.50
2022-12-01T16:46:03.219Z,29.77
2022-12-01T16:48:31.432Z,28.43
2022-12-01T16:51:03.148Z,26.53
2022-12-01T16:53:30.150Z,28.57
2022-12-01T16:56:01.963Z,28.10
2022-12-01T16:58:28.953Z,29.10
2022-12-01T17:00:56.086Z,27.30
2022-12-01T17:03:25.878Z,27.87
2022-12-01T17:05:53.774Z,32.90
2022-12-01T17:08:21.453Z,29.03
2022-12-01T17:10:50.303Z,26.43
2022-12-01T17:13:19.107Z,30.90
2022-12-01T17:15:48.047Z,32.47
2022-12-01T17:18:16.903Z,30.97
2022-12-01T17:20:44.321Z,28.27
2022-12-01T17:23:11.855Z,34.50
2022-12-01T17:25:41.752Z,31.60
2022-12-01T17:28:08.801Z,35.70
2022-12-01T17:30:36.895Z,29.43
2022-12-01T17:33:04.396Z,33.67
2022-12-01T17:35:31.412Z,32.87
2022-12-01T17:37:58.345Z,31.67
2022-12-01T17:40:25.417Z,33.33
2022-12-01T17:42:52.533Z,34.53
2022-12-01T17:45:19.670Z,39.00
2022-12-01T17:47:46.960Z,37.10
2022-12-01T17:50:14.040Z,34.07
2022-12-01T17:52:41.020Z,37.17
2022-12-01T17:55:08.611Z,31.43
2022-12-01T17:57:35.846Z,31.37
2022-12-01T18:00:04.165Z,31.43
2022-12-01T18:02:35.813Z,31.67
2022-12-01T18:05:02.924Z,32.50
2022-12-01T18:07:30.133Z,31.97
2022-12-01T18:09:57.153Z,33.80
2022-12-01T18:12:24.197Z,33.17
2022-12-01T18:14:51.509Z,29.90
2022-12-01T18:17:18.840Z,38.00
2022-12-01T18:19:45.862Z,34.47
2022-12-01T18:22:12.847Z,35.50
2022-12-01T18:24:39.941Z,36.63
2022-12-01T18:27:07.053Z,32.37
2022-12-01T18:29:34.366Z,35.27
2022-12-01T18:32:01.325Z,40.03
2022-12-01T18:34:32.181Z,40.07
2022-12-01T18:37:00.827Z,40.27
2022-12-01T18:39:27.922Z,38.30
2022-12-01T18:41:55.128Z,38.30
2022-12-01T18:44:22.258Z,44.30
2022-12-01T18:46:49.641Z,39.63
2022-12-01T18:49:16.845Z,41.93
2022-12-01T18:51:45.153Z,41.70
2022-12-01T18:54:13.909Z,39.13
2022-12-01T18:56:41.546Z,41.27
2022-12-01T18:59:10.987Z,41.67
2022-12-01T19:01:40.768Z,45.87
2022-12-01T19:04:09.833Z,38.50
2022-12-01T19:06:38.733Z,50.03
2022-12-01T19:09:09.528Z,45.83
2022-12-01T19:11:37.913Z,43.37
2022-12-01T19:14:05.315Z,46.73
2022-12-01T19:16:32.947Z,46.10
2022-12-01T19:19:01.658Z,48.20
2022-12-01T19:21:28.756Z,50.10
2022-12-01T19:23:56.339Z,50.20
2022-12-01T19:26:25.629Z,46.23
2022-12-01T19:28:52.989Z,44.97
2022-12-01T19:31:25.023Z,47.07
2022-12-01T19:33:53.758Z,44.17
2022-12-01T19:36:27.070Z,49.67
2022-12-01T19:38:57.640Z,46.67
2022-12-01T19:41:25.536Z,42.30
2022-12-01T19:43:53.730Z,48.03
2022-12-01T19:46:23.960Z,51.17
2022-12-01T19:49:03.010Z,48.77
2022-12-01T19:51:35.240Z,45.60
2022-12-01T19:54:03.740Z,54.97
2022-12-01T19:56:31.637Z,56.73
2022-12-01T19:58:59.299Z,55.70
2022-12-01T20:01:27.596Z,51.83
2022-12-01T20:03:55.258Z,58.80
2022-12-01T20:06:25.805Z,58.50
2022-12-01T20:08:54.724Z,53.70
2022-12-01T20:11:22.304Z,57.93
2022-12-01T20:13:49.404Z,60.87
2022-12-01T20:16:19.647Z,62.10
2022-12-01T20:18:47.167Z,64.30
2022-12-01T20:21:24.357Z,64.17
2022-12-01T20:23:58.241Z,64.87
2022-12-01T20:26:30.821Z,63.27
2022-12-01T20:29:04.806Z,67.03
2022-12-01T20:31:33.249Z,63.00
2022-12-01T20:34:03.177Z,65.03
2022-12-01T20:36:30.776Z,66.97
2022-12-01T20:38:58.017Z,59.97
2022-12-01T20:41:25.023Z,69.57
2022-12-01T20:43:52.257Z,68.33
2022-12-01T20:46:19.411Z,63.67
2022-12-01T20:48:46.664Z,62.80
2022-12-01T20:51:15.558Z,65.87
2022-12-01T20:53:59.552Z,65.20
2022-12-01T20:56:29.890Z,61.70
2022-12-01T20:58:57.030Z,60.37
2022-12-01T21:01:24.270Z,62.17
2022-12-01T21:03:51.628Z,61.50
2022-12-01T21:06:18.994Z,63.93
2022-12-01T21:08:47.722Z,68.63
2022-12-01T21:11:40.480Z,60.77
2022-12-01T21:14:15.512Z,72.90
2022-12-01T21:16:48.313Z,66.57
2022-12-01T21:19:24.013Z,71.70
2022-12-01T21:21:51.026Z,65.27
2022-12-01T21:24:20.361Z,68.50
2022-12-01T21:30:48.801Z,63.33
2022-12-01T21:33:31.055Z,67.23
2022-12-01T21:36:00.831Z,67.77
2022-12-01T21:38:28.621Z,67.63
2022-12-01T21:40:55.649Z,63.40
2022-12-01T21:43:25.421Z,58.13
2022-12-01T21:46:02.160Z,62.90
2022-12-01T21:48:36.407Z,63.37
2022-12-01T21:51:21.195Z,73.77
2022-12-01T21:53:48.941Z,68.80
2022-12-01T21:56:28.001Z,62.87
2022-12-01T21:59:06.348Z,65.00
2022-12-01T22:01:34.672Z,61.53
2022-12-01T22:04:10.988Z,57.63
2022-12-01T22:06:41.231Z,65.13
2022-12-01T22:09:22.480Z,70.27
2022-12-01T22:12:06.057Z,71.53
2022-12-01T22:14:34.749Z,59.13
2022-12-01T22:17:19.385Z,66.93
2022-12-01T22:19:56.157Z,57.30
2022-12-01T22:22:27.838Z,62.57
2022-12-01T22:25:15.990Z,61.30
2022-12-01T22:27:44.022Z,71.23
2022-12-01T22:30:16.166Z,68.67
2022-12-01T22:32:55.631Z,69.13
2022-12-01T22:35:34.454Z,65.57
2022-12-01T22:38:07.153Z,63.30
2022-12-01T22:40:36.517Z,65.00
2022-12-01T22:43:15.857Z,67.87
2022-12-01T22:45:43.882Z,61.93
2022-12-01T22:48:26.409Z,68.90
2022-12-01T22:50:58.520Z,69.67
2022-12-01T22:53:30.824Z,65.27
2022-12-01T22:56:00.734Z,78.33
2022-12-01T22:58:35.080Z,71.40
2022-12-01T23:01:08.640Z,73.13
2022-12-01T23:03:35.990Z,70.13
2022-12-01T23:06:22.933Z,73.30
2022-12-01T23:08:49.963Z,74.90
2022-12-01T23:11:16.989Z,76.07
2022-12-01T23:13:43.951Z,75.77
2022-12-01T23:16:11.718Z,64.83
2022-12-01T23:18:38.758Z,69.40
2022-12-01T23:21:05.851Z,70.03
2022-12-01T23:23:35.722Z,67.60
2022-12-01T23:26:08.339Z,73.63
2022-12-01T23:28:37.339Z,72.00
2022-12-01T23:31:04.490Z,64.10
2022-12-01T23:33:35.305Z,64.97
2022-12-01T23:36:12.548Z,65.87
2022-12-01T23:38:42.752Z,65.80
2022-12-01T23:41:35.782Z,64.20
2022-12-01T23:44:12.022Z,57.10
2022-12-01T23:46:39.379Z,69.67
2022-12-01T23:49:14.662Z,63.00
2022-12-01T23:51:49.774Z,59.77
2022-12-01T23:54:21.073Z,64.17
2022-12-01T23:56:52.221Z,63.27
2022-12-01T23:59:20.585Z,61.40
